createdAt,value
2022-11-30T00:00:51.063Z,8.50
2022-11-30T00:03:37.546Z,8.50
2022-11-30T00:06:25.323Z,8.40
2022-11-30T00:09:13.104Z,8.30
2022-11-30T00:11:59.478Z,8.30
2022-11-30T00:14:47.405Z,8.40
2022-11-30T00:17:34.115Z,8.40
2022-11-30T00:20:20.572Z,8.30
2022-11-30T00:23:10.058Z,8.20
2022-11-30T00:25:56.722Z,8.10
2022-11-30T00:28:45.167Z,8.20
2022-11-30T00:31:32.959Z,8.30
2022-11-30T00:34:19.753Z,8.40
2022-11-30T00:37:06.015Z,8.40
2022-11-30T00:39:52.670Z,8.60
2022-11-30T00:42:39.269Z,8.60
2022-11-30T00:45:25.593Z,8.60
2022-11-30T00:48:13.355Z,8.70
2022-11-30T00:51:00.119Z,8.70
2022-11-30T00:53:47.583Z,8.60
2022-11-30T00:56:34.401Z,8.60
2022-11-30T00:59:20.908Z,8.50
2022-11-30T01:02:07.513Z,8.60
2022-11-30T01:04:55.725Z,8.60
2022-11-30T01:07:42.284Z,8.60
2022-11-30T01:10:28.803Z,8.50
2022-11-30T01:13:15.308Z,8.40
2022-11-30T01:16:01.736Z,8.50
2022-11-30T01:18:49.262Z,8.30
2022-11-30T01:21:37.091Z,8.30
2022-11-30T01:24:23.472Z,8.30
2022-11-30T01:27:09.950Z,8.40
2022-11-30T01:29:56.160Z,8.40
2022-11-30T01:32:42.670Z,8.40
2022-11-30T01:35:29.345Z,8.40
2022-11-30T01:38:17.369Z,8.50
2022-11-30T01:41:04.727Z,8.60
2022-11-30T01:43:52.905Z,8.50
2022-11-30T01:46:42.055Z,8.60
2022-11-30T01:49:31.178Z,8.60
2022-11-30T01:52:21.680Z,8.60
2022-11-30T01:55:17.118Z,8.70
2022-11-30T01:58:08.071Z,8.60
2022-11-30T02:00:54.753Z,8.50
2022-11-30T02:03:46.561Z,8.50
2022-11-30T02:06:33.285Z,8.60
2022-11-30T02:09:22.411Z,8.70
2022-11-30T02:12:19.148Z,8.70
2022-11-30T02:15:12.219Z,8.70
2022-11-30T02:18:06.151Z,8.60
2022-11-30T02:21:05.054Z,8.60
2022-11-30T02:24:17.041Z,8.60
2022-11-30T02:27:19.575Z,8.60
2022-11-30T02:30:10.763Z,8.50
2022-11-30T02:33:01.091Z,8.60
2022-11-30T02:35:54.718Z,8.50
2022-11-30T02:38:43.051Z,8.50
2022-11-30T02:41:38.227Z,8.30
2022-11-30T02:44:26.068Z,8.30
2022-11-30T02:47:22.194Z,8.30
2022-11-30T02:50:15.496Z,8.30
2022-11-30T02:53:02.649Z,8.30
2022-11-30T02:55:48.922Z,8.20
2022-11-30T02:58:35.454Z,8.20
2022-11-30T03:01:23.029Z,8.10
2022-11-30T03:04:10.690Z,8.10
2022-11-30T03:06:57.539Z,8.00
2022-11-30T03:09:44.563Z,8.10
2022-11-30T03:12:30.829Z,8.00
2022-11-30T03:15:17.311Z,8.00
2022-11-30T03:18:04.737Z,8.00
2022-11-30T03:20:52.773Z,8.00
2022-11-30T03:23:40.861Z,7.90
2022-11-30T03:26:27.811Z,7.90
2022-11-30T03:29:14.674Z,7.90
2022-11-30T03:32:01.575Z,7.90
2022-11-30T03:34:48.228Z,8.00
2022-11-30T03:37:36.768Z,8.00
2022-11-30T03:40:23.078Z,8.00
2022-11-30T03:43:09.491Z,7.90
2022-11-30T03:45:56.195Z,7.80
2022-11-30T03:48:42.571Z,8.00
2022-11-30T03:51:28.975Z,8.00
2022-11-30T03:54:16.956Z,8.00
2022-11-30T03:57:03.498Z,8.00
2022-11-30T03:59:50.142Z,8.00
2022-11-30T04:02:41.539Z,8.00
2022-11-30T04:05:31.007Z,8.00
2022-11-30T04:08:17.370Z,8.00
2022-11-30T04:11:05.927Z,8.00
2022-11-30T04:13:52.551Z,8.00
2022-11-30T04:16:39.157Z,8.10
2022-11-30T04:19:25.524Z,8.10
2022-11-30T04:22:11.919Z,8.10
2022-11-30T04:24:58.266Z,8.20
2022-11-30T04:27:47.983Z,8.20
2022-11-30T04:30:34.706Z,8.20
2022-11-30T04:33:21.362Z,8.10
2022-11-30T04:36:09.366Z,8.10
2022-11-30T04:38:55.918Z,8.10
2022-11-30T04:41:42.311Z,8.10
2022-11-30T04:44:29.987Z,8.00
2022-11-30T04:47:16.533Z,7.80
2022-11-30T04:50:02.979Z,7.70
2022-11-30T04:52:49.366Z,7.70
2022-11-30T04:55:37.348Z,7.70
2022-11-30T04:58:23.965Z,7.60
2022-11-30T05:01:12.192Z,7.60
2022-11-30T05:04:00.159Z,7.60
2022-11-30T05:06:46.987Z,7.70
2022-11-30T05:09:33.495Z,7.70
2022-11-30T05:12:20.228Z,7.60
2022-11-30T05:15:08.187Z,7.60
2022-11-30T05:17:59.773Z,7.60
2022-11-30T05:20:49.135Z,7.50
2022-11-30T05:23:35.586Z,7.50
2022-11-30T05:26:21.998Z,7.40
2022-11-30T05:29:08.642Z,7.30
2022-11-30T05:31:55.039Z,7.30
2022-11-30T05:34:50.483Z,7.30
2022-11-30T05:37:38.406Z,7.30
2022-11-30T05:40:25.600Z,7.40
2022-11-30T05:43:12.726Z,7.40
2022-11-30T05:46:01.715Z,7.30
2022-11-30T05:48:48.557Z,7.20
2022-11-30T05:51:36.277Z,7.10
2022-11-30T05:54:22.688Z,7.10
2022-11-30T05:57:09.196Z,7.00
2022-11-30T05:59:55.903Z,7.00
2022-11-30T06:02:42.312Z,7.00
2022-11-30T06:05:29.195Z,7.00
2022-11-30T06:08:16.873Z,7.00
2022-11-30T06:11:03.850Z,7.00
2022-11-30T06:13:50.566Z,7.10
2022-11-30T06:16:39.124Z,7.10
2022-11-30T06:19:25.658Z,7.10
2022-11-30T06:22:12.033Z,7.20
2022-11-30T06:24:59.586Z,7.20
2022-11-30T06:27:45.973Z,7.20
2022-11-30T06:30:32.444Z,7.10
2022-11-30T06:33:23.370Z,7.10
2022-11-30T06:36:10.568Z,7.10
2022-11-30T06:38:57.212Z,7.10
2022-11-30T06:41:44.945Z,7.10
2022-11-30T06:44:31.422Z,7.00
2022-11-30T06:47:17.805Z,7.00
2022-11-30T06:50:04.602Z,7.00
2022-11-30T06:52:51.091Z,7.10
2022-11-30T06:55:38.348Z,7.20
2022-11-30T06:58:26.452Z,7.20
2022-11-30T07:01:15.085Z,7.30
2022-11-30T07:04:01.684Z,7.40
2022-11-30T07:06:48.503Z,7.20
2022-11-30T07:09:35.174Z,7.20
2022-11-30T07:12:21.441Z,7.20
2022-11-30T07:15:10.591Z,7.20
2022-11-30T07:17:57.392Z,7.10
2022-11-30T07:20:43.843Z,7.00
2022-11-30T07:23:54.065Z,7.00
2022-11-30T07:26:43.040Z,6.90
2022-11-30T07:29:29.402Z,6.90
2022-11-30T07:32:17.383Z,6.90
2022-11-30T07:35:03.770Z,7.00
2022-11-30T07:37:50.059Z,7.00
2022-11-30T07:40:36.415Z,7.10
2022-11-30T07:43:22.865Z,7.10
2022-11-30T07:46:12.337Z,7.00
2022-11-30T07:49:00.519Z,7.00
2022-11-30T07:51:47.103Z,7.00
2022-11-30T07:54:33.491Z,6.90
2022-11-30T07:57:19.894Z,7.00
2022-11-30T08:00:08.875Z,7.00
2022-11-30T08:02:58.859Z,7.00
2022-11-30T08:05:46.702Z,7.10
2022-11-30T08:08:33.929Z,7.20
2022-11-30T08:11:22.558Z,7.20
2022-11-30T08:14:12.890Z,7.10
2022-11-30T08:16:59.870Z,7.10
2022-11-30T08:19:46.184Z,7.00
2022-11-30T08:22:34.170Z,7.00
2022-11-30T08:25:21.125Z,7.00
2022-11-30T08:28:07.971Z,7.10
2022-11-30T08:30:54.492Z,7.10
2022-11-30T08:33:41.866Z,7.10
2022-11-30T08:36:30.139Z,7.10
2022-11-30T08:39:17.873Z,7.10
2022-11-30T08:42:04.908Z,7.20
2022-11-30T08:44:51.241Z,7.30
2022-11-30T08:47:37.881Z,7.30
2022-11-30T08:50:24.680Z,7.30
2022-11-30T08:53:11.576Z,7.30
2022-11-30T08:56:01.017Z,7.30
2022-11-30T08:58:48.790Z,7.40
2022-11-30T09:01:35.400Z,7.40
2022-11-30T09:04:22.356Z,7.40
2022-11-30T09:07:09.596Z,7.40
2022-11-30T09:09:56.178Z,7.40
2022-11-30T09:12:43.966Z,7.40
2022-11-30T09:15:30.587Z,7.40
2022-11-30T09:18:17.075Z,7.40
2022-11-30T09:21:05.102Z,7.50
2022-11-30T09:23:52.743Z,7.60
2022-11-30T09:26:39.458Z,7.70
2022-11-30T09:29:27.238Z,7.80
2022-11-30T09:32:13.610Z,7.80
2022-11-30T09:34:59.954Z,7.90
2022-11-30T09:37:46.415Z,7.90
2022-11-30T09:40:35.825Z,7.90
2022-11-30T09:43:34.159Z,7.90
2022-11-30T09:46:29.188Z,7.90
2022-11-30T09:49:20.183Z,7.80
2022-11-30T09:52:13.629Z,7.80
2022-11-30T09:55:03.293Z,7.80
2022-11-30T09:57:54.118Z,7.80
2022-11-30T10:00:40.875Z,7.90
2022-11-30T10:03:28.597Z,7.90
2022-11-30T10:06:25.493Z,7.80
2022-11-30T10:09:27.961Z,7.80
2022-11-30T10:12:18.578Z,7.80
2022-11-30T10:15:21.415Z,7.70
2022-11-30T10:18:19.109Z,7.70
2022-11-30T10:21:18.108Z,7.80
2022-11-30T10:24:16.186Z,7.80
2022-11-30T10:27:13.110Z,7.90
2022-11-30T10:30:01.610Z,7.80
2022-11-30T10:32:52.607Z,7.90
2022-11-30T10:35:42.847Z,7.90
2022-11-30T10:38:35.206Z,7.90
2022-11-30T10:41:27.100Z,8.10
2022-11-30T10:44:19.396Z,8.10
2022-11-30T10:47:12.801Z,8.10
2022-11-30T10:49:59.533Z,8.30
2022-11-30T10:52:48.971Z,8.40
2022-11-30T10:55:41.341Z,8.60
2022-11-30T10:58:31.487Z,8.60
2022-11-30T11:01:32.208Z,8.80
2022-11-30T11:04:22.526Z,8.90
2022-11-30T11:07:11.069Z,9.00
2022-11-30T11:10:01.799Z,9.00
2022-11-30T11:12:52.231Z,8.80
2022-11-30T11:15:38.779Z,8.60
2022-11-30T11:18:27.569Z,8.50
2022-11-30T11:21:19.528Z,8.50
2022-11-30T11:24:10.591Z,8.40
2022-11-30T11:26:58.295Z,8.50
2022-11-30T11:29:47.288Z,8.50
2022-11-30T11:32:34.648Z,8.50
2022-11-30T11:35:35.206Z,8.40
2022-11-30T11:38:28.109Z,8.50
2022-11-30T11:41:21.220Z,8.50
2022-11-30T11:44:21.858Z,8.50
2022-11-30T11:47:24.947Z,8.60
2022-11-30T11:51:05.669Z,8.60
2022-11-30T11:53:51.689Z,8.60
2022-11-30T11:56:39.817Z,8.60
2022-11-30T11:59:38.898Z,8.70
2022-11-30T12:02:34.931Z,8.60
2022-11-30T12:05:28.022Z,8.60
2022-11-30T12:08:19.994Z,8.60
2022-11-30T12:11:14.825Z,8.50
2022-11-30T12:14:09.373Z,8.60
2022-11-30T12:17:09.501Z,8.60
2022-11-30T12:20:06.407Z,8.60
2022-11-30T12:23:07.893Z,8.50
2022-11-30T12:25:59.764Z,8.50
2022-11-30T12:28:58.317Z,8.40
2022-11-30T12:31:58.230Z,8.40
2022-11-30T12:35:04.041Z,8.30
2022-11-30T12:38:03.739Z,8.30
2022-11-30T12:40:59.897Z,8.30
2022-11-30T12:43:54.431Z,8.30
2022-11-30T12:46:47.167Z,8.30
2022-11-30T12:49:49.011Z,8.30
2022-11-30T12:52:48.436Z,8.30
2022-11-30T12:55:41.194Z,8.30
2022-11-30T12:58:36.758Z,8.30
2022-11-30T13:01:37.964Z,8.30
2022-11-30T13:04:29.124Z,8.20
2022-11-30T13:07:25.838Z,8.30
2022-11-30T13:10:22.647Z,8.40
2022-11-30T13:13:14.988Z,8.50
2022-11-30T13:16:04.777Z,8.50
2022-11-30T13:18:52.622Z,8.40
2022-11-30T13:21:45.398Z,8.40
2022-11-30T13:24:38.369Z,8.50
2022-11-30T13:27:32.601Z,8.50
2022-11-30T13:30:31.299Z,8.40
2022-11-30T13:33:46.388Z,8.50
2022-11-30T13:36:36.759Z,8.50
2022-11-30T13:39:25.848Z,8.50
2022-11-30T13:42:32.680Z,8.40
2022-11-30T13:45:27.366Z,8.40
2022-11-30T13:48:33.698Z,8.30
2022-11-30T13:51:37.731Z,8.30
2022-11-30T13:54:41.252Z,8.30
2022-11-30T13:58:06.849Z,8.30
2022-11-30T14:01:25.319Z,8.20
2022-11-30T14:04:33.771Z,8.20
2022-11-30T14:07:36.501Z,8.20
2022-11-30T14:10:31.014Z,8.30
2022-11-30T14:13:32.419Z,8.30
2022-11-30T14:16:24.165Z,8.30
2022-11-30T14:19:11.665Z,8.20
2022-11-30T14:21:59.193Z,8.30
2022-11-30T14:24:47.726Z,8.20
2022-11-30T14:27:37.598Z,8.30
2022-11-30T14:30:25.782Z,8.30
2022-11-30T14:33:19.905Z,8.40
2022-11-30T14:36:08.827Z,8.50
2022-11-30T14:38:55.268Z,8.40
2022-11-30T14:41:43.102Z,8.40
2022-11-30T14:44:34.583Z,8.40
2022-11-30T14:47:25.259Z,8.50
2022-11-30T14:50:23.232Z,8.50
2022-11-30T14:53:21.229Z,8.50
2022-11-30T14:56:19.103Z,8.50
2022-11-30T14:59:19.935Z,8.60
2022-11-30T15:02:12.831Z,8.60
2022-11-30T15:05:01.633Z,8.40
2022-11-30T15:07:48.789Z,8.50
2022-11-30T15:10:36.064Z,8.40
2022-11-30T15:13:22.789Z,8.40
2022-11-30T15:16:17.532Z,8.40
2022-11-30T15:19:22.157Z,8.40
2022-11-30T15:22:22.502Z,8.40
2022-11-30T15:25:13.757Z,8.40
2022-11-30T15:28:01.079Z,8.30
2022-11-30T15:30:49.555Z,8.20
2022-11-30T15:33:42.032Z,8.10
2022-11-30T15:36:34.985Z,8.20
2022-11-30T15:39:24.808Z,8.10
2022-11-30T15:42:21.424Z,8.10
2022-11-30T15:45:18.210Z,8.10
2022-11-30T15:48:25.174Z,8.00
2022-11-30T15:51:24.463Z,8.00
2022-11-30T15:54:11.304Z,8.00
2022-11-30T15:57:00.738Z,8.00
2022-11-30T16:00:07.167Z,7.90
2022-11-30T16:03:08.762Z,7.80
2022-11-30T16:05:57.650Z,7.70
2022-11-30T16:08:48.201Z,7.70
2022-11-30T16:11:36.030Z,7.70
2022-11-30T16:14:25.966Z,7.60
2022-11-30T16:17:12.712Z,7.70
2022-11-30T16:19:59.627Z,7.70
2022-11-30T16:22:47.561Z,7.70
2022-11-30T16:25:34.529Z,7.60
2022-11-30T16:28:22.087Z,7.60
2022-11-30T16:31:17.918Z,7.60
2022-11-30T16:34:04.541Z,7.60
2022-11-30T16:36:51.237Z,7.50
2022-11-30T16:39:38.166Z,7.40
2022-11-30T16:42:24.407Z,7.50
2022-11-30T16:45:16.727Z,7.50
2022-11-30T16:48:05.608Z,7.50
2022-11-30T16:50:52.738Z,7.50
2022-11-30T16:53:39.277Z,7.50
2022-11-30T16:56:25.839Z,7.60
2022-11-30T16:59:16.623Z,7.60
2022-11-30T17:02:04.832Z,7.50
2022-11-30T17:04:53.015Z,7.60
2022-11-30T17:07:39.453Z,7.60
2022-11-30T17:10:26.433Z,7.60
2022-11-30T17:13:15.093Z,7.60
2022-11-30T17:16:01.375Z,7.60
2022-11-30T17:18:47.770Z,7.40
2022-11-30T17:21:39.818Z,7.40
2022-11-30T17:24:26.321Z,7.40
2022-11-30T17:27:13.056Z,7.40
2022-11-30T17:29:59.542Z,7.40
2022-11-30T17:32:46.447Z,7.40
2022-11-30T17:35:32.988Z,7.20
2022-11-30T17:38:20.759Z,7.20
2022-11-30T17:41:08.026Z,7.10
2022-11-30T17:43:54.793Z,7.20
2022-11-30T17:46:46.684Z,7.10
2022-11-30T17:49:34.350Z,7.00
2022-11-30T17:52:20.784Z,7.10
2022-11-30T17:55:11.814Z,7.10
2022-11-30T17:57:58.744Z,7.10
2022-11-30T18:00:45.562Z,7.20
2022-11-30T18:03:32.045Z,7.20
2022-11-30T18:06:19.089Z,7.10
2022-11-30T18:09:05.702Z,7.10
2022-11-30T18:11:53.698Z,7.10
2022-11-30T18:14:40.122Z,7.10
2022-11-30T18:17:26.521Z,7.10
2022-11-30T18:20:13.766Z,7.00
2022-11-30T18:23:00.076Z,7.00
2022-11-30T18:25:46.342Z,7.00
2022-11-30T18:28:35.106Z,7.00
2022-11-30T18:31:22.021Z,6.90
2022-11-30T18:34:09.143Z,7.00
2022-11-30T18:36:55.470Z,7.00
2022-11-30T18:39:42.605Z,6.90
2022-11-30T18:42:29.036Z,7.00
2022-11-30T18:45:16.956Z,7.00
2022-11-30T18:48:03.771Z,6.90
2022-11-30T18:50:50.155Z,6.90
2022-11-30T18:53:36.457Z,6.90
2022-11-30T18:56:22.978Z,6.90
2022-11-30T18:59:13.352Z,6.90
2022-11-30T19:02:01.632Z,6.90
2022-11-30T19:04:48.781Z,6.80
2022-11-30T19:07:40.504Z,6.90
2022-11-30T19:10:27.577Z,6.90
2022-11-30T19:13:14.164Z,7.00
2022-11-30T19:16:03.261Z,6.90
2022-11-30T19:18:51.186Z,6.90
2022-11-30T19:21:38.083Z,6.80
2022-11-30T19:24:25.135Z,6.80
2022-11-30T19:27:11.414Z,6.70
2022-11-30T19:29:58.004Z,6.60
2022-11-30T19:32:44.678Z,6.60
2022-11-30T19:35:32.324Z,6.50
2022-11-30T19:38:19.058Z,6.40
2022-11-30T19:41:06.797Z,6.30
2022-11-30T19:44:02.501Z,6.30
2022-11-30T19:46:50.162Z,6.30
2022-11-30T19:49:36.603Z,6.20
2022-11-30T19:52:24.517Z,6.20
2022-11-30T19:55:12.032Z,6.20
2022-11-30T19:57:58.178Z,6.10
2022-11-30T20:00:47.234Z,6.10
2022-11-30T20:03:35.251Z,6.00
2022-11-30T20:06:24.630Z,6.00
2022-11-30T20:09:12.411Z,5.90
2022-11-30T20:11:58.950Z,5.80
2022-11-30T20:14:45.662Z,5.80
2022-11-30T20:17:32.422Z,5.80
2022-11-30T20:20:18.861Z,5.80
2022-11-30T20:23:06.315Z,5.80
2022-11-30T20:25:54.338Z,5.80
2022-11-30T20:28:41.159Z,5.80
2022-11-30T20:31:28.955Z,5.70
2022-11-30T20:34:15.856Z,5.70
2022-11-30T20:37:02.426Z,5.60
2022-11-30T20:39:48.722Z,5.60
2022-11-30T20:42:36.416Z,5.60
2022-11-30T20:45:22.786Z,5.60
2022-11-30T20:48:09.047Z,5.60
2022-11-30T20:51:22.219Z,5.50
2022-11-30T20:54:03.670Z,5.40
2022-11-30T20:56:51.361Z,5.30
2022-11-30T20:59:39.811Z,5.30
2022-11-30T21:02:26.462Z,5.30
2022-11-30T21:05:13.541Z,5.30
2022-11-30T21:07:59.940Z,5.30
2022-11-30T21:10:46.783Z,5.30
2022-11-30T21:13:34.034Z,5.30
2022-11-30T21:16:27.573Z,5.40
2022-11-30T21:19:15.396Z,5.50
2022-11-30T21:22:01.686Z,5.50
2022-11-30T21:24:50.165Z,5.50
2022-11-30T21:27:36.832Z,5.50
2022-11-30T21:30:23.186Z,5.50
2022-11-30T21:33:10.927Z,5.50
2022-11-30T21:35:57.361Z,5.50
2022-11-30T21:38:44.441Z,5.60
2022-11-30T21:41:31.376Z,5.70
2022-11-30T21:44:18.356Z,5.70
2022-11-30T21:47:04.871Z,5.80
2022-11-30T21:49:52.776Z,5.70
2022-11-30T21:52:39.354Z,5.60
2022-11-30T21:55:25.647Z,5.50
2022-11-30T21:58:11.991Z,5.40
2022-11-30T22:01:00.225Z,5.30
2022-11-30T22:03:47.316Z,5.40
2022-11-30T22:06:37.237Z,5.40
2022-11-30T22:09:23.860Z,5.40
2022-11-30T22:12:10.466Z,5.40
2022-11-30T22:14:56.700Z,5.40
2022-11-30T22:17:43.196Z,5.40
2022-11-30T22:20:29.771Z,5.40
2022-11-30T22:23:17.509Z,5.40
2022-11-30T22:26:15.058Z,5.40
2022-11-30T22:29:03.355Z,5.40
2022-11-30T22:31:52.793Z,5.40
2022-11-30T22:34:39.510Z,5.40
2022-11-30T22:37:25.812Z,5.40
2022-11-30T22:40:14.771Z,5.40
2022-11-30T22:43:01.328Z,5.50
2022-11-30T22:45:47.777Z,5.50
2022-11-30T22:48:34.563Z,5.60
2022-11-30T22:51:22.807Z,5.60
2022-11-30T22:54:10.151Z,5.50
2022-11-30T22:56:58.037Z,5.50
2022-11-30T22:59:44.449Z,5.40
2022-11-30T23:02:30.855Z,5.40
2022-11-30T23:05:17.470Z,5.40
2022-11-30T23:08:04.217Z,5.30
2022-11-30T23:10:50.960Z,5.30
2022-11-30T23:13:40.021Z,5.30
2022-11-30T23:16:27.035Z,5.30
2022-11-30T23:19:14.374Z,5.30
2022-11-30T23:22:00.935Z,5.30
2022-11-30T23:24:47.430Z,5.30
2022-11-30T23:27:33.782Z,5.30
2022-11-30T23:30:21.563Z,5.30
2022-11-30T23:33:08.236Z,5.20
2022-11-30T23:35:54.494Z,5.20
2022-11-30T23:38:40.864Z,5.30
2022-11-30T23:41:27.682Z,5.30
2022-11-30T23:44:14.444Z,5.20
2022-11-30T23:47:02.428Z,5.20
2022-11-30T23:49:49.767Z,5.20
2022-11-30T23:52:36.496Z,5.20
2022-11-30T23:55:22.847Z,5.20
2022-11-30T23:58:09.213Z,5.20
